createdAt,value
2023-01-31T00:01:20.163Z,77.84
2023-01-31T00:03:54.827Z,77.81
2023-01-31T00:06:25.857Z,76.69
2023-01-31T00:08:56.269Z,76.68
2023-01-31T00:11:27.949Z,76.63
2023-01-31T00:13:58.920Z,76.56
2023-01-31T00:16:28.163Z,76.82
2023-01-31T00:18:59.108Z,77.55
2023-01-31T00:21:30.630Z,78.20
2023-01-31T00:24:00.811Z,76.66
2023-01-31T00:26:31.507Z,77.07
2023-01-31T00:29:03.122Z,77.21
2023-01-31T00:31:33.997Z,77.59
2023-01-31T00:34:05.227Z,77.00
2023-01-31T00:36:35.997Z,77.33
2023-01-31T00:39:08.047Z,77.48
2023-01-31T00:41:39.714Z,76.89
2023-01-31T00:44:09.553Z,76.95
2023-01-31T00:46:40.964Z,75.53
2023-01-31T00:49:11.963Z,76.17
2023-01-31T00:51:41.357Z,77.00
2023-01-31T00:54:10.838Z,76.73
2023-01-31T00:56:40.125Z,76.76
2023-01-31T00:59:09.579Z,76.57
2023-01-31T01:01:40.082Z,76.85
2023-01-31T01:04:11.257Z,76.65
2023-01-31T01:06:42.008Z,76.75
2023-01-31T01:09:14.391Z,76.23
2023-01-31T01:11:43.607Z,77.02
2023-01-31T01:14:13.083Z,76.58
2023-01-31T01:16:43.553Z,75.33
2023-01-31T01:19:17.494Z,76.49
2023-01-31T01:21:48.838Z,76.00
2023-01-31T01:24:20.484Z,76.27
2023-01-31T01:26:49.886Z,76.64
2023-01-31T01:29:19.386Z,75.73
2023-01-31T01:31:48.763Z,76.30
2023-01-31T01:34:20.094Z,76.07
2023-01-31T01:36:49.255Z,75.22
2023-01-31T01:39:20.338Z,75.68
2023-01-31T01:41:51.248Z,75.83
2023-01-31T01:44:57.063Z,76.17
2023-01-31T01:47:38.024Z,75.88
2023-01-31T01:50:16.319Z,76.50
2023-01-31T01:52:55.594Z,75.63
2023-01-31T01:55:30.528Z,76.12
2023-01-31T01:58:14.841Z,76.22
2023-01-31T02:00:46.199Z,75.71
2023-01-31T02:03:16.072Z,75.51
2023-01-31T02:05:51.262Z,75.25
2023-01-31T02:08:23.255Z,74.87
2023-01-31T02:10:57.549Z,75.32
2023-01-31T02:13:27.218Z,75.05
2023-01-31T02:15:57.530Z,74.67
2023-01-31T02:18:28.249Z,73.74
2023-01-31T02:21:31.394Z,75.17
2023-01-31T02:24:39.349Z,74.73
2023-01-31T02:27:36.938Z,74.92
2023-01-31T02:30:32.357Z,74.45
2023-01-31T02:33:16.305Z,74.37
2023-01-31T02:36:05.784Z,74.85
2023-01-31T02:38:46.910Z,74.80
2023-01-31T02:41:22.107Z,73.72
2023-01-31T02:44:13.516Z,74.34
2023-01-31T02:46:52.993Z,74.96
2023-01-31T02:49:35.624Z,74.21
2023-01-31T02:52:28.316Z,74.31
2023-01-31T02:55:26.751Z,73.98
2023-01-31T02:57:59.137Z,74.56
2023-01-31T03:00:30.759Z,74.72
2023-01-31T03:02:59.980Z,74.50
2023-01-31T03:05:30.876Z,74.40
2023-01-31T03:08:05.084Z,73.60
2023-01-31T03:10:52.326Z,74.05
2023-01-31T03:13:35.557Z,73.34
2023-01-31T03:16:33.166Z,72.71
2023-01-31T03:19:13.678Z,72.53
2023-01-31T03:21:48.799Z,72.82
2023-01-31T03:24:20.365Z,72.74
2023-01-31T03:26:50.558Z,73.10
2023-01-31T03:29:20.442Z,72.16
2023-01-31T03:36:30.277Z,72.97
2023-01-31T03:39:21.132Z,72.96
2023-01-31T03:41:58.967Z,72.80
2023-01-31T03:44:37.603Z,71.39
2023-01-31T03:47:14.654Z,72.23
2023-01-31T03:49:46.662Z,72.99
2023-01-31T03:52:23.427Z,72.81
2023-01-31T03:54:56.299Z,72.48
2023-01-31T03:57:32.451Z,72.44
2023-01-31T04:00:04.624Z,73.34
2023-01-31T04:02:44.840Z,72.81
2023-01-31T04:05:19.766Z,72.59
2023-01-31T04:07:51.840Z,74.02
2023-01-31T04:10:27.498Z,73.71
2023-01-31T04:12:56.940Z,73.37
2023-01-31T04:15:26.687Z,73.52
2023-01-31T04:17:56.307Z,73.81
2023-01-31T04:20:25.626Z,73.82
2023-01-31T04:22:55.065Z,73.01
2023-01-31T04:25:25.708Z,72.99
2023-01-31T04:27:55.057Z,72.55
2023-01-31T04:30:24.304Z,73.26
2023-01-31T04:32:53.759Z,72.17
2023-01-31T04:35:23.074Z,71.55
2023-01-31T04:37:52.474Z,71.95
2023-01-31T04:40:21.609Z,71.20
2023-01-31T04:42:53.543Z,71.81
2023-01-31T04:45:22.847Z,71.53
2023-01-31T04:47:52.300Z,70.94
2023-01-31T04:50:21.650Z,71.69
2023-01-31T04:52:52.184Z,71.61
2023-01-31T04:55:21.949Z,71.86
2023-01-31T04:57:53.066Z,71.12
2023-01-31T05:00:22.906Z,71.52
2023-01-31T05:02:52.551Z,71.25
2023-01-31T05:05:22.087Z,71.24
2023-01-31T05:07:51.619Z,70.86
2023-01-31T05:10:20.789Z,70.27
2023-01-31T05:12:50.304Z,70.74
2023-01-31T05:15:21.944Z,71.55
2023-01-31T05:17:54.676Z,70.22
2023-01-31T05:20:23.920Z,71.36
2023-01-31T05:22:53.412Z,70.98
2023-01-31T05:25:22.935Z,71.79
2023-01-31T05:27:52.771Z,72.22
2023-01-31T05:30:24.427Z,72.59
2023-01-31T05:32:54.143Z,72.97
2023-01-31T05:35:23.572Z,73.11
2023-01-31T05:37:55.354Z,73.87
2023-01-31T05:40:25.006Z,73.95
2023-01-31T05:42:57.246Z,74.48
2023-01-31T05:45:28.397Z,74.40
2023-01-31T05:47:58.537Z,74.55
2023-01-31T05:50:27.916Z,74.77
2023-01-31T05:53:00.803Z,74.19
2023-01-31T05:55:30.228Z,73.88
2023-01-31T05:58:01.433Z,74.15
2023-01-31T06:00:32.284Z,73.48
2023-01-31T06:03:02.139Z,73.58
2023-01-31T06:05:32.176Z,73.76
2023-01-31T06:08:01.640Z,73.47
2023-01-31T06:10:30.881Z,73.12
2023-01-31T06:13:00.282Z,72.20
2023-01-31T06:15:29.418Z,73.25
2023-01-31T06:18:00.240Z,73.92
2023-01-31T06:20:29.506Z,72.62
2023-01-31T06:23:01.112Z,73.50
2023-01-31T06:25:31.827Z,73.07
2023-01-31T06:28:01.394Z,73.39
2023-01-31T06:30:30.942Z,73.56
2023-01-31T06:33:03.426Z,73.54
2023-01-31T06:35:33.970Z,73.64
2023-01-31T06:38:03.742Z,73.20
2023-01-31T06:40:33.051Z,72.95
2023-01-31T06:43:02.557Z,73.14
2023-01-31T06:45:31.983Z,72.89
2023-01-31T06:48:02.747Z,73.27
2023-01-31T06:50:31.869Z,73.24
2023-01-31T06:53:01.311Z,72.82
2023-01-31T06:55:30.468Z,72.78
2023-01-31T06:58:00.160Z,72.22
2023-01-31T07:00:30.078Z,72.37
2023-01-31T07:03:01.366Z,72.71
2023-01-31T07:05:30.599Z,72.20
2023-01-31T07:08:00.269Z,72.72
2023-01-31T07:10:29.469Z,72.24
2023-01-31T07:12:58.936Z,72.04
2023-01-31T07:15:28.023Z,71.92
2023-01-31T07:18:01.343Z,71.03
2023-01-31T07:20:30.480Z,71.88
2023-01-31T07:23:00.676Z,70.88
2023-01-31T07:25:32.573Z,71.41
2023-01-31T07:28:02.532Z,70.28
2023-01-31T07:30:32.192Z,70.34
2023-01-31T07:33:03.748Z,70.55
2023-01-31T07:35:33.381Z,70.31
2023-01-31T07:38:02.827Z,69.53
2023-01-31T07:40:32.122Z,70.07
2023-01-31T07:43:02.084Z,70.07
2023-01-31T07:45:31.320Z,69.99
2023-01-31T07:48:02.128Z,69.99
2023-01-31T07:50:31.314Z,69.41
2023-01-31T07:53:00.914Z,69.10
2023-01-31T07:55:30.755Z,68.63
2023-01-31T07:58:00.422Z,68.28
2023-01-31T08:00:47.340Z,67.66
2023-01-31T08:03:34.562Z,66.80
2023-01-31T08:06:05.457Z,67.33
2023-01-31T08:08:35.156Z,66.45
2023-01-31T08:11:05.591Z,65.43
2023-01-31T08:13:35.255Z,65.55
2023-01-31T08:16:04.979Z,65.69
2023-01-31T08:18:35.983Z,65.01
2023-01-31T08:21:05.238Z,64.91
2023-01-31T08:23:35.361Z,64.78
2023-01-31T08:26:05.700Z,64.77
2023-01-31T08:28:35.639Z,64.32
2023-01-31T08:31:09.547Z,65.20
2023-01-31T08:33:40.577Z,65.32
2023-01-31T08:36:14.006Z,65.11
2023-01-31T08:38:44.699Z,66.63
2023-01-31T08:41:14.051Z,66.10
2023-01-31T08:43:54.857Z,65.84
2023-01-31T08:46:25.616Z,64.98
2023-01-31T08:48:56.427Z,64.35
2023-01-31T08:51:26.495Z,63.41
2023-01-31T08:53:56.321Z,62.29
2023-01-31T08:56:27.911Z,62.00
2023-01-31T08:58:58.528Z,61.62
2023-01-31T09:01:27.750Z,62.67
2023-01-31T09:03:58.511Z,62.46
2023-01-31T09:06:29.107Z,62.87
2023-01-31T09:08:59.421Z,62.92
2023-01-31T09:11:30.648Z,62.60
2023-01-31T09:14:00.241Z,62.79
2023-01-31T09:16:29.925Z,62.09
2023-01-31T09:19:00.841Z,61.78
2023-01-31T09:21:30.256Z,62.11
2023-01-31T09:24:03.886Z,61.29
2023-01-31T09:26:33.448Z,60.76
2023-01-31T09:29:02.917Z,59.63
2023-01-31T09:31:32.507Z,60.25
2023-01-31T09:34:03.399Z,59.54
2023-01-31T09:36:33.021Z,59.82
2023-01-31T09:39:02.568Z,60.34
2023-01-31T09:41:37.137Z,59.45
2023-01-31T09:44:11.720Z,57.07
2023-01-31T09:46:46.091Z,55.90
2023-01-31T09:49:23.756Z,56.42
2023-01-31T09:51:57.266Z,54.54
2023-01-31T09:54:32.040Z,53.83
2023-01-31T09:57:20.461Z,53.83
2023-01-31T09:59:59.371Z,55.18
2023-01-31T10:02:50.674Z,55.85
2023-01-31T10:05:31.926Z,55.91
2023-01-31T10:08:09.640Z,56.31
2023-01-31T10:10:40.817Z,56.73
2023-01-31T10:13:18.651Z,57.68
2023-01-31T10:15:52.722Z,57.11
2023-01-31T10:18:29.400Z,57.53
2023-01-31T10:21:05.534Z,57.19
2023-01-31T10:23:40.176Z,56.94
2023-01-31T10:26:15.790Z,55.83
2023-01-31T10:28:51.912Z,56.19
2023-01-31T10:31:31.658Z,55.63
2023-01-31T10:34:05.586Z,54.89
2023-01-31T10:36:41.331Z,53.79
2023-01-31T10:39:21.446Z,53.69
2023-01-31T10:42:11.908Z,53.77
2023-01-31T10:44:48.887Z,53.02
2023-01-31T10:47:20.639Z,53.53
2023-01-31T10:49:51.850Z,54.19
2023-01-31T10:52:49.213Z,55.57
2023-01-31T10:55:36.226Z,55.71
2023-01-31T10:58:07.367Z,56.38
2023-01-31T11:00:37.494Z,57.00
2023-01-31T11:03:07.138Z,56.44
2023-01-31T11:05:41.340Z,56.30
2023-01-31T11:08:29.344Z,56.44
2023-01-31T11:11:00.369Z,56.91
2023-01-31T11:13:29.937Z,56.45
2023-01-31T11:15:59.597Z,56.26
2023-01-31T11:18:33.144Z,56.40
2023-01-31T11:21:03.843Z,55.54
2023-01-31T11:23:37.545Z,55.43
2023-01-31T11:26:06.989Z,56.23
2023-01-31T11:28:38.649Z,56.56
2023-01-31T11:31:18.679Z,57.07
2023-01-31T11:33:58.223Z,56.61
2023-01-31T11:36:32.287Z,55.78
2023-01-31T11:39:31.662Z,55.60
2023-01-31T11:42:08.427Z,55.38
2023-01-31T11:44:38.024Z,55.27
2023-01-31T11:47:13.343Z,56.09
2023-01-31T11:49:43.795Z,55.23
2023-01-31T11:52:17.849Z,55.22
2023-01-31T11:54:52.537Z,55.18
2023-01-31T11:57:26.896Z,54.34
2023-01-31T12:00:00.149Z,53.66
2023-01-31T12:02:36.076Z,52.87
2023-01-31T12:05:11.941Z,53.09
2023-01-31T12:07:46.553Z,52.83
2023-01-31T12:10:37.964Z,52.43
2023-01-31T12:13:19.092Z,52.24
2023-01-31T12:15:55.941Z,52.96
2023-01-31T12:18:50.462Z,52.31
2023-01-31T12:21:36.019Z,53.08
2023-01-31T12:24:15.734Z,52.89
2023-01-31T12:26:50.665Z,53.74
2023-01-31T12:29:49.291Z,54.20
2023-01-31T12:32:35.226Z,54.19
2023-01-31T12:35:27.943Z,54.48
2023-01-31T12:38:13.009Z,54.53
2023-01-31T12:40:48.552Z,55.39
2023-01-31T12:43:35.862Z,55.68
2023-01-31T12:46:15.795Z,54.93
2023-01-31T12:49:25.780Z,54.83
2023-01-31T12:52:03.839Z,55.07
2023-01-31T12:54:59.881Z,53.93
2023-01-31T12:57:40.782Z,54.49
2023-01-31T13:00:30.176Z,54.01
2023-01-31T13:03:17.631Z,54.15
2023-01-31T13:05:51.411Z,54.30
2023-01-31T13:08:23.266Z,54.30
2023-01-31T13:10:59.318Z,54.21
2023-01-31T13:13:32.001Z,53.89
2023-01-31T13:16:10.969Z,54.42
2023-01-31T13:18:41.290Z,54.84
2023-01-31T13:21:14.571Z,55.45
2023-01-31T13:23:48.584Z,55.08
2023-01-31T13:26:22.206Z,55.28
2023-01-31T13:28:56.984Z,55.51
2023-01-31T13:31:32.961Z,56.12
2023-01-31T13:34:06.527Z,56.78
2023-01-31T13:36:42.732Z,60.02
2023-01-31T13:39:20.758Z,63.31
2023-01-31T13:41:50.297Z,63.76
2023-01-31T13:44:21.026Z,60.58
2023-01-31T13:46:57.456Z,54.26
2023-01-31T13:49:30.926Z,50.70
2023-01-31T13:52:03.214Z,55.23
2023-01-31T13:54:38.211Z,56.36
2023-01-31T13:57:08.463Z,57.14
2023-01-31T13:59:39.698Z,58.54
2023-01-31T14:02:20.960Z,58.16
2023-01-31T14:04:50.655Z,57.59
2023-01-31T14:07:22.674Z,59.39
2023-01-31T14:10:37.488Z,59.62
2023-01-31T14:13:39.850Z,59.54
2023-01-31T14:16:39.012Z,59.12
2023-01-31T14:19:53.011Z,59.43
2023-01-31T14:22:24.046Z,59.81
2023-01-31T14:25:03.937Z,58.89
2023-01-31T14:27:38.204Z,58.87
2023-01-31T14:30:44.217Z,58.35
2023-01-31T14:33:29.774Z,59.45
2023-01-31T14:36:33.082Z,60.23
2023-01-31T14:39:32.475Z,60.41
2023-01-31T14:42:31.494Z,60.53
2023-01-31T14:45:29.961Z,61.52
2023-01-31T14:48:20.119Z,62.06
2023-01-31T14:51:05.213Z,62.22
2023-01-31T14:53:59.587Z,63.48
2023-01-31T14:56:55.230Z,64.32
2023-01-31T14:59:30.652Z,64.56
2023-01-31T15:02:00.924Z,64.90
2023-01-31T15:04:30.732Z,64.97
2023-01-31T15:07:00.025Z,64.45
2023-01-31T15:09:41.124Z,64.43
2023-01-31T15:12:43.497Z,64.42
2023-01-31T15:15:26.779Z,64.92
2023-01-31T15:17:57.923Z,65.46
2023-01-31T15:20:36.583Z,65.47
2023-01-31T15:23:09.254Z,65.95
2023-01-31T15:25:45.821Z,66.45
2023-01-31T15:28:18.747Z,65.75
2023-01-31T15:30:49.012Z,65.72
2023-01-31T15:33:24.488Z,66.58
2023-01-31T15:35:59.960Z,67.19
2023-01-31T15:38:34.885Z,67.27
2023-01-31T15:41:27.436Z,67.97
2023-01-31T15:44:11.179Z,68.55
2023-01-31T15:46:43.190Z,68.56
2023-01-31T15:49:43.077Z,69.98
2023-01-31T15:52:15.824Z,70.06
2023-01-31T15:54:59.566Z,70.80
2023-01-31T15:57:37.838Z,71.28
2023-01-31T16:00:08.594Z,71.90
2023-01-31T16:02:39.142Z,72.04
2023-01-31T16:05:10.007Z,71.53
2023-01-31T16:07:39.460Z,72.51
2023-01-31T16:10:13.875Z,73.04
2023-01-31T16:12:47.817Z,72.35
2023-01-31T16:15:23.457Z,72.50
2023-01-31T16:17:55.395Z,73.34
2023-01-31T16:20:46.291Z,73.84
2023-01-31T16:23:31.612Z,74.24
2023-01-31T16:26:07.047Z,74.23
2023-01-31T16:28:42.180Z,73.55
2023-01-31T16:31:13.976Z,74.60
2023-01-31T16:33:51.076Z,74.09
2023-01-31T16:36:24.984Z,74.72
2023-01-31T16:39:00.024Z,75.03
2023-01-31T16:41:46.824Z,76.26
2023-01-31T16:44:21.439Z,76.22
2023-01-31T16:46:52.072Z,75.99
2023-01-31T16:49:26.618Z,76.81
2023-01-31T16:51:58.167Z,75.94
2023-01-31T16:54:30.933Z,76.79
2023-01-31T16:57:23.508Z,76.65
2023-01-31T16:59:55.592Z,77.27
2023-01-31T17:02:27.615Z,78.00
2023-01-31T17:04:59.158Z,77.65
2023-01-31T17:07:31.296Z,77.37
2023-01-31T17:10:04.176Z,78.21
2023-01-31T17:12:35.920Z,77.95
2023-01-31T17:15:15.502Z,78.41
2023-01-31T17:17:44.743Z,78.46
2023-01-31T17:20:17.069Z,78.79
2023-01-31T17:22:56.906Z,78.27
2023-01-31T17:25:35.084Z,79.93
2023-01-31T17:28:04.635Z,79.48
2023-01-31T17:30:40.142Z,80.51
2023-01-31T17:33:13.490Z,80.85
2023-01-31T17:35:48.363Z,80.69
2023-01-31T17:38:17.735Z,80.27
2023-01-31T17:40:49.764Z,79.60
2023-01-31T17:43:26.128Z,80.00
2023-01-31T17:45:57.239Z,80.56
2023-01-31T17:48:27.213Z,81.62
2023-01-31T17:50:56.970Z,81.37
2023-01-31T17:53:27.597Z,81.61
2023-01-31T17:56:03.971Z,81.68
2023-01-31T17:58:35.407Z,81.55
2023-01-31T18:01:09.663Z,82.14
2023-01-31T18:03:38.952Z,81.36
2023-01-31T18:06:10.304Z,81.78
2023-01-31T18:08:39.885Z,81.22
2023-01-31T18:11:10.757Z,82.10
2023-01-31T18:13:41.077Z,81.75
2023-01-31T18:16:15.935Z,81.90
2023-01-31T18:18:45.861Z,81.69
2023-01-31T18:21:17.468Z,81.61
2023-01-31T18:23:51.406Z,82.94
2023-01-31T18:26:21.744Z,83.24
2023-01-31T18:28:51.946Z,82.95
2023-01-31T18:31:23.363Z,83.37
2023-01-31T18:33:52.893Z,83.72
2023-01-31T18:36:24.043Z,83.62
2023-01-31T18:38:54.694Z,83.28
2023-01-31T18:41:25.772Z,83.98
2023-01-31T18:43:55.153Z,83.82
2023-01-31T18:46:26.850Z,83.47
2023-01-31T18:48:56.856Z,83.46
2023-01-31T18:51:28.012Z,83.57
2023-01-31T18:53:57.493Z,83.48
2023-01-31T18:56:27.353Z,84.00
2023-01-31T18:58:57.549Z,83.76
2023-01-31T19:01:29.787Z,84.56
2023-01-31T19:04:00.285Z,83.92
2023-01-31T19:06:32.123Z,83.84
2023-01-31T19:09:02.681Z,84.11
2023-01-31T19:11:32.628Z,84.08
2023-01-31T19:14:06.858Z,84.18
2023-01-31T19:16:41.172Z,83.95
2023-01-31T19:19:12.415Z,84.20
2023-01-31T19:21:42.336Z,83.59
2023-01-31T19:24:15.569Z,83.45
2023-01-31T19:26:46.302Z,82.97
2023-01-31T19:29:17.239Z,82.49
2023-01-31T19:31:48.520Z,82.96
2023-01-31T19:34:17.938Z,82.84
2023-01-31T19:36:49.322Z,82.74
2023-01-31T19:39:18.760Z,82.91
2023-01-31T19:41:48.977Z,82.70
2023-01-31T19:44:20.504Z,82.50
2023-01-31T19:46:54.089Z,82.47
2023-01-31T19:49:25.577Z,81.96
2023-01-31T19:51:58.575Z,82.45
2023-01-31T19:54:31.157Z,81.53
2023-01-31T19:57:01.930Z,81.44
2023-01-31T19:59:33.917Z,81.21
2023-01-31T20:02:05.334Z,81.31
2023-01-31T20:04:34.965Z,81.74
2023-01-31T20:07:04.922Z,81.01
2023-01-31T20:09:35.883Z,80.05
2023-01-31T20:12:06.088Z,80.12
2023-01-31T20:14:36.088Z,79.82
2023-01-31T20:17:07.268Z,80.86
2023-01-31T20:19:36.981Z,81.59
2023-01-31T20:22:06.721Z,81.62
2023-01-31T20:24:36.595Z,81.61
2023-01-31T20:27:06.488Z,80.88
2023-01-31T20:29:36.134Z,81.59
2023-01-31T20:32:09.540Z,81.69
2023-01-31T20:34:39.073Z,81.54
2023-01-31T20:37:09.096Z,81.10
2023-01-31T20:39:39.154Z,81.07
2023-01-31T20:42:11.044Z,80.76
2023-01-31T20:44:41.085Z,80.70
2023-01-31T20:47:12.432Z,81.19
2023-01-31T20:49:41.697Z,80.68
2023-01-31T20:52:11.927Z,79.59
2023-01-31T20:54:41.677Z,80.34
2023-01-31T20:57:11.235Z,80.96
2023-01-31T20:59:40.412Z,82.08
2023-01-31T21:02:12.853Z,81.90
2023-01-31T21:04:43.515Z,83.10
2023-01-31T21:07:12.932Z,82.79
2023-01-31T21:09:42.119Z,82.57
2023-01-31T21:12:11.476Z,81.36
2023-01-31T21:14:42.094Z,80.54
2023-01-31T21:17:14.235Z,80.06
2023-01-31T21:19:43.557Z,79.38
2023-01-31T21:22:13.121Z,79.65
2023-01-31T21:24:42.340Z,78.54
2023-01-31T21:27:12.487Z,79.35
2023-01-31T21:29:41.575Z,79.45
2023-01-31T21:32:12.805Z,79.21
2023-01-31T21:34:41.927Z,79.25
2023-01-31T21:37:11.576Z,79.27
2023-01-31T21:39:40.716Z,78.99
2023-01-31T21:42:16.084Z,78.68
2023-01-31T21:44:45.976Z,78.61
2023-01-31T21:47:17.426Z,78.79
2023-01-31T21:49:46.602Z,79.27
2023-01-31T21:52:16.003Z,79.12
2023-01-31T21:54:45.081Z,79.53
2023-01-31T21:57:14.476Z,78.50
2023-01-31T21:59:45.562Z,78.35
2023-01-31T22:02:16.405Z,77.93
2023-01-31T22:04:45.692Z,77.19
2023-01-31T22:07:15.058Z,76.38
2023-01-31T22:09:44.397Z,75.97
2023-01-31T22:12:13.745Z,75.38
2023-01-31T22:14:42.920Z,75.56
2023-01-31T22:17:12.379Z,75.62
2023-01-31T22:19:42.854Z,75.87
2023-01-31T22:22:12.286Z,76.93
2023-01-31T22:24:41.485Z,77.57
2023-01-31T22:27:10.872Z,77.32
2023-01-31T22:29:41.495Z,76.71
2023-01-31T22:32:10.987Z,76.84
2023-01-31T22:34:41.678Z,77.27
2023-01-31T22:37:11.172Z,77.11
2023-01-31T22:39:40.330Z,76.98
2023-01-31T22:42:10.088Z,75.96
2023-01-31T22:44:39.183Z,75.22
2023-01-31T22:47:08.778Z,75.28
2023-01-31T22:49:37.925Z,74.74
2023-01-31T22:52:08.764Z,75.67
2023-01-31T22:54:38.033Z,75.51
2023-01-31T22:57:07.413Z,75.22
2023-01-31T22:59:36.466Z,74.96
2023-01-31T23:02:06.539Z,75.13
2023-01-31T23:04:35.942Z,75.56
2023-01-31T23:07:05.328Z,75.18
2023-01-31T23:09:35.948Z,76.17
2023-01-31T23:12:05.701Z,76.45
2023-01-31T23:14:34.843Z,77.76
2023-01-31T23:17:30.324Z,78.16
2023-01-31T23:19:59.381Z,78.98
2023-01-31T23:22:29.255Z,79.33
2023-01-31T23:25:00.037Z,80.19
2023-01-31T23:27:29.561Z,80.95
2023-01-31T23:29:58.696Z,81.01
2023-01-31T23:32:28.149Z,80.60
2023-01-31T23:34:57.947Z,80.91
2023-01-31T23:37:27.821Z,80.33
2023-01-31T23:39:58.338Z,80.64
2023-01-31T23:42:28.069Z,81.08
2023-01-31T23:44:57.290Z,81.00
2023-01-31T23:47:26.839Z,81.46
2023-01-31T23:49:56.060Z,81.66
2023-01-31T23:52:25.418Z,81.67
2023-01-31T23:54:54.619Z,81.24
2023-01-31T23:57:25.445Z,81.54
2023-01-31T23:59:54.600Z,80.38
